Upstream stations:
Downstream station:
SHEF ID: GSVT2 Red River near Gainesville, TX
STATION TYPE:
Regulating: Stage = 25.00, Flow = 68922
PRECIP STAGE RIV-FLOW BAT-LOAD
in ft cfs volt
Ccp-Rev Ccp-Rev Ccp-Rev Ccp-Rev
(US/Central)
07/17 00:00 0.00 7.48 373 12.57
07/17 01:00 0.00 7.47 370 12.57
07/17 02:00 0.00 7.47 370 12.57
07/17 03:00 0.00 7.46 367 12.57
07/17 04:00 0.00 7.46 367 12.57
07/17 05:00 0.00 7.46 367 12.57
07/17 06:00 0.00 7.42 355 12.57
07/17 07:00 0.00 7.47 370 12.49
07/17 08:00 0.00 7.47 370 12.65
07/17 09:00 0.00 7.48 373 13.13
07/17 10:00 0.00 7.47 370 13.29
07/17 11:00 0.00 7.48 373 13.29
07/17 12:00 0.00 7.45 364 13.29
07/17 13:00 0.00 7.48 373 13.44
07/17 14:00 0.00 7.48 373 13.68
07/17 15:00 0.00 7.48 373 13.44
07/17 16:00 0.00 7.43 358 13.68
07/17 17:00 0.00 7.47 370 13.13
07/17 18:00 0.00 7.44 361 13.13
07/17 19:00 0.00 7.46 367 13.13
07/17 20:00 0.00 7.41 353 13.13
07/17 21:00 0.00 7.42 355 12.81
07/17 22:00 0.00 7.41 353 12.65
07/17 23:00 0.00 7.41 353 12.57